< Cyclone 202007 2020 Season Cyclone 202010 >
Cyclone 202008 (Ferdinand)
General InformationTrack Information on Google MapsDetailed Wind InformationList of All Images || ResourceGoogle EarthGE AnimationAtom FeedGeoJSON
Detalied Best Track (Time Zone = UTC)
Year Month Day Hour Lat. Long. Pressure (hPa) Wind (kt) Class Image Chart
2020 2 22 00 -11.9 119.0 1004 20 2 Image --
2020 2 22 06 -12.0 119.2 1004 20 2 Image --
2020 2 22 12 -12.2 119.2 1002 20 2 Image --
2020 2 23 00 -12.3 119.2 1002 25 2 Image --
2020 2 23 06 -12.4 119.1 1002 25 2 Image --
2020 2 23 12 -12.9 118.7 1000 25 2 Image --
2020 2 23 18 -13.2 118.4 998 35 3 Image --
2020 2 24 00 -13.7 118.1 995 40 3 Image --
2020 2 24 06 -14.1 117.8 995 40 3 Image --
2020 2 24 12 -14.5 117.4 992 45 3 Image --
2020 2 24 18 -14.9 117.4 992 45 3 Image --
2020 2 25 00 -15.2 117.1 976 65 5 Image --
2020 2 25 06 -15.4 116.6 968 75 5 Image --
2020 2 25 12 -15.7 116.5 960 85 5 Image --
2020 2 25 18 -15.8 115.9 960 85 5 Image --
2020 2 26 00 -15.9 115.5 960 85 5 Image --
2020 2 26 06 -15.9 115.1 960 85 5 Image --
2020 2 26 12 -16.1 114.8 960 85 5 Image --
2020 2 26 18 -16.3 114.7 960 80 5 Image --
2020 2 27 00 -16.5 114.5 972 70 5 Image --
2020 2 27 06 -16.5 114.3 984 55 4 Image --
2020 2 27 12 -16.5 114.1 988 50 4 Image --
2020 2 27 18 -16.5 113.7 989 50 4 Image --
2020 2 28 00 -16.4 113.2 992 45 3 Image --
2020 2 28 06 -16.3 113.0 991 45 3 Image --
2020 2 28 12 -16.2 112.7 988 50 4 Image --
2020 2 28 18 -16.1 112.3 991 45 3 Image --
2020 2 29 00 -15.9 111.7 990 40 3 Image --
2020 2 29 06 -15.5 111.3 995 40 3 Image --
2020 2 29 12 -15.5 111.2 998 30 2 Image --
2020 2 29 18 -15.4 111.1 999 30 2 Image --
2020 3 1 00 -15.4 111.0 1000 30 2 Image --
2020 3 1 06 -15.2 110.8 1001 25 2 Image --
2020 3 1 12 -14.9 110.5 1002 20 2 Image --
< Cyclone 202007 2020 Season Cyclone 202010 >

Help